sensor_id;sensor_type;location;lat;lon;timestamp;P1;durP1;ratioP1;P2;durP2;ratioP2
26656;SDS011;14279;50.010;8.260;2022-12-01T00:00:12;29.93;;;19.77;;
26656;SDS011;14279;50.010;8.260;2022-12-01T00:02:38;27.43;;;19.53;;
26656;SDS011;14279;50.010;8.260;2022-12-01T00:05:03;31.57;;;20.93;;
26656;SDS011;14279;50.010;8.260;2022-12-01T00:07:29;29.10;;;19.33;;
26656;SDS011;14279;50.010;8.260;2022-12-01T00:09:54;29.70;;;19.80;;
26656;SDS011;14279;50.010;8.260;2022-12-01T00:12:38;30.50;;;18.23;;
26656;SDS011;14279;50.010;8.260;2022-12-01T00:15:07;29.07;;;19.30;;
26656;SDS011;14279;50.010;8.260;2022-12-01T00:17:33;29.77;;;19.03;;
26656;SDS011;14279;50.010;8.260;2022-12-01T00:19:58;29.47;;;19.00;;
26656;SDS011;14279;50.010;8.260;2022-12-01T00:22:24;32.40;;;19.80;;
26656;SDS011;14279;50.010;8.260;2022-12-01T00:24:49;30.80;;;19.00;;
26656;SDS011;14279;50.010;8.260;2022-12-01T00:27:14;25.40;;;17.70;;
26656;SDS011;14279;50.010;8.260;2022-12-01T00:29:39;29.00;;;18.67;;
26656;SDS011;14279;50.010;8.260;2022-12-01T00:32:05;30.87;;;17.87;;
26656;SDS011;14279;50.010;8.260;2022-12-01T00:34:30;28.27;;;19.43;;
26656;SDS011;14279;50.010;8.260;2022-12-01T00:36:55;29.27;;;18.50;;
26656;SDS011;14279;50.010;8.260;2022-12-01T00:39:20;23.57;;;16.83;;
26656;SDS011;14279;50.010;8.260;2022-12-01T00:41:46;29.80;;;17.47;;
26656;SDS011;14279;50.010;8.260;2022-12-01T00:44:11;28.93;;;18.07;;
26656;SDS011;14279;50.010;8.260;2022-12-01T00:46:36;32.00;;;19.40;;
26656;SDS011;14279;50.010;8.260;2022-12-01T00:49:02;28.00;;;19.17;;
26656;SDS011;14279;50.010;8.260;2022-12-01T00:51:27;31.17;;;18.60;;
26656;SDS011;14279;50.010;8.260;2022-12-01T00:53:52;29.70;;;18.70;;
26656;SDS011;14279;50.010;8.260;2022-12-01T00:56:17;52.07;;;19.93;;
26656;SDS011;14279;50.010;8.260;2022-12-01T00:58:44;30.97;;;18.60;;
26656;SDS011;14279;50.010;8.260;2022-12-01T01:01:10;31.97;;;19.80;;
26656;SDS011;14279;50.010;8.260;2022-12-01T01:03:35;29.17;;;18.70;;
26656;SDS011;14279;50.010;8.260;2022-12-01T01:06:04;26.33;;;18.57;;
26656;SDS011;14279;50.010;8.260;2022-12-01T01:08:34;30.67;;;19.10;;
26656;SDS011;14279;50.010;8.260;2022-12-01T01:11:00;31.73;;;18.87;;
26656;SDS011;14279;50.010;8.260;2022-12-01T01:13:25;25.73;;;17.00;;
26656;SDS011;14279;50.010;8.260;2022-12-01T01:15:58;28.90;;;18.00;;
26656;SDS011;14279;50.010;8.260;2022-12-01T01:18:28;31.07;;;19.50;;
26656;SDS011;14279;50.010;8.260;2022-12-01T01:20:58;28.03;;;17.33;;
26656;SDS011;14279;50.010;8.260;2022-12-01T01:23:28;28.80;;;16.17;;
26656;SDS011;14279;50.010;8.260;2022-12-01T01:25:59;27.20;;;17.07;;
26656;SDS011;14279;50.010;8.260;2022-12-01T01:28:28;27.23;;;16.57;;
26656;SDS011;14279;50.010;8.260;2022-12-01T01:30:54;32.63;;;18.27;;
26656;SDS011;14279;50.010;8.260;2022-12-01T01:33:20;31.60;;;18.77;;
26656;SDS011;14279;50.010;8.260;2022-12-01T01:35:45;29.70;;;17.73;;
26656;SDS011;14279;50.010;8.260;2022-12-01T01:38:10;41.00;;;18.90;;
26656;SDS011;14279;50.010;8.260;2022-12-01T01:40:41;35.63;;;17.00;;
26656;SDS011;14279;50.010;8.260;2022-12-01T01:43:14;27.70;;;17.10;;
26656;SDS011;14279;50.010;8.260;2022-12-01T01:45:41;29.77;;;17.43;;
26656;SDS011;14279;50.010;8.260;2022-12-01T01:48:07;34.23;;;18.13;;
26656;SDS011;14279;50.010;8.260;2022-12-01T01:50:35;33.97;;;18.77;;
26656;SDS011;14279;50.010;8.260;2022-12-01T01:53:02;35.03;;;18.40;;
26656;SDS011;14279;50.010;8.260;2022-12-01T01:55:32;38.60;;;19.83;;
26656;SDS011;14279;50.010;8.260;2022-12-01T01:57:59;38.13;;;20.07;;
26656;SDS011;14279;50.010;8.260;2022-12-01T02:00:26;38.50;;;19.90;;
26656;SDS011;14279;50.010;8.260;2022-12-01T02:02:52;38.37;;;20.87;;
26656;SDS011;14279;50.010;8.260;2022-12-01T02:05:21;34.23;;;19.20;;
26656;SDS011;14279;50.010;8.260;2022-12-01T02:07:49;36.83;;;20.83;;
26656;SDS011;14279;50.010;8.260;2022-12-01T02:10:16;32.33;;;19.90;;
26656;SDS011;14279;50.010;8.260;2022-12-01T02:15:49;38.30;;;21.73;;
26656;SDS011;14279;50.010;8.260;2022-12-01T02:39:06;41.83;;;23.27;;
26656;SDS011;14279;50.010;8.260;2022-12-01T02:41:46;40.50;;;22.67;;
26656;SDS011;14279;50.010;8.260;2022-12-01T02:47:17;38.53;;;21.17;;
26656;SDS011;14279;50.010;8.260;2022-12-01T02:49:45;40.73;;;21.50;;
26656;SDS011;14279;50.010;8.260;2022-12-01T02:52:13;41.30;;;23.90;;
26656;SDS011;14279;50.010;8.260;2022-12-01T02:54:40;45.97;;;22.80;;
26656;SDS011;14279;50.010;8.260;2022-12-01T02:57:10;39.93;;;21.70;;
26656;SDS011;14279;50.010;8.260;2022-12-01T02:59:37;43.43;;;24.10;;
26656;SDS011;14279;50.010;8.260;2022-12-01T03:02:12;37.83;;;21.93;;
26656;SDS011;14279;50.010;8.260;2022-12-01T03:08:06;38.43;;;20.70;;
26656;SDS011;14279;50.010;8.260;2022-12-01T03:10:47;39.80;;;23.30;;
26656;SDS011;14279;50.010;8.260;2022-12-01T03:13:20;42.70;;;23.10;;
26656;SDS011;14279;50.010;8.260;2022-12-01T03:18:37;35.77;;;21.50;;
26656;SDS011;14279;50.010;8.260;2022-12-01T03:21:11;37.00;;;21.50;;
26656;SDS011;14279;50.010;8.260;2022-12-01T03:23:44;37.57;;;21.20;;
26656;SDS011;14279;50.010;8.260;2022-12-01T03:26:15;46.37;;;22.80;;
26656;SDS011;14279;50.010;8.260;2022-12-01T03:29:26;40.17;;;21.47;;
26656;SDS011;14279;50.010;8.260;2022-12-01T03:31:35;39.23;;;22.43;;
26656;SDS011;14279;50.010;8.260;2022-12-01T03:34:09;38.87;;;22.10;;
26656;SDS011;14279;50.010;8.260;2022-12-01T03:36:39;41.60;;;21.97;;
26656;SDS011;14279;50.010;8.260;2022-12-01T03:39:10;35.60;;;21.03;;
26656;SDS011;14279;50.010;8.260;2022-12-01T03:41:44;40.63;;;22.10;;
26656;SDS011;14279;50.010;8.260;2022-12-01T03:44:19;37.80;;;21.37;;
26656;SDS011;14279;50.010;8.260;2022-12-01T03:49:17;37.90;;;22.10;;
26656;SDS011;14279;50.010;8.260;2022-12-01T03:54:19;40.70;;;22.90;;
26656;SDS011;14279;50.010;8.260;2022-12-01T03:56:54;37.47;;;21.83;;
26656;SDS011;14279;50.010;8.260;2022-12-01T03:59:23;41.07;;;22.93;;
26656;SDS011;14279;50.010;8.260;2022-12-01T04:01:50;40.30;;;23.10;;
26656;SDS011;14279;50.010;8.260;2022-12-01T04:04:15;36.13;;;21.30;;
26656;SDS011;14279;50.010;8.260;2022-12-01T04:06:42;38.93;;;22.43;;
26656;SDS011;14279;50.010;8.260;2022-12-01T04:09:11;38.43;;;23.20;;
26656;SDS011;14279;50.010;8.260;2022-12-01T04:11:36;40.83;;;22.77;;
26656;SDS011;14279;50.010;8.260;2022-12-01T04:14:20;35.50;;;21.77;;
26656;SDS011;14279;50.010;8.260;2022-12-01T04:16:45;43.30;;;22.00;;
26656;SDS011;14279;50.010;8.260;2022-12-01T04:19:11;45.43;;;22.70;;
26656;SDS011;14279;50.010;8.260;2022-12-01T04:21:36;42.50;;;23.43;;
26656;SDS011;14279;50.010;8.260;2022-12-01T04:24:02;36.20;;;22.00;;
26656;SDS011;14279;50.010;8.260;2022-12-01T04:26:28;42.30;;;23.00;;
26656;SDS011;14279;50.010;8.260;2022-12-01T04:28:56;40.33;;;22.90;;
26656;SDS011;14279;50.010;8.260;2022-12-01T04:31:22;42.30;;;22.23;;
26656;SDS011;14279;50.010;8.260;2022-12-01T04:33:47;47.27;;;22.90;;
26656;SDS011;14279;50.010;8.260;2022-12-01T04:36:12;41.97;;;22.80;;
26656;SDS011;14279;50.010;8.260;2022-12-01T04:38:38;43.13;;;23.27;;
26656;SDS011;14279;50.010;8.260;2022-12-01T04:41:07;44.10;;;22.57;;
26656;SDS011;14279;50.010;8.260;2022-12-01T04:43:33;43.27;;;23.93;;
26656;SDS011;14279;50.010;8.260;2022-12-01T04:45:58;40.53;;;22.23;;
26656;SDS011;14279;50.010;8.260;2022-12-01T04:48:24;44.73;;;21.93;;
26656;SDS011;14279;50.010;8.260;2022-12-01T04:50:49;38.40;;;20.47;;
26656;SDS011;14279;50.010;8.260;2022-12-01T04:53:14;40.17;;;22.10;;
26656;SDS011;14279;50.010;8.260;2022-12-01T04:55:39;37.87;;;23.10;;
26656;SDS011;14279;50.010;8.260;2022-12-01T04:58:05;39.13;;;22.90;;
26656;SDS011;14279;50.010;8.260;2022-12-01T05:00:30;36.13;;;21.53;;
26656;SDS011;14279;50.010;8.260;2022-12-01T05:02:56;38.80;;;21.93;;
26656;SDS011;14279;50.010;8.260;2022-12-01T05:05:22;39.43;;;22.23;;
26656;SDS011;14279;50.010;8.260;2022-12-01T05:07:47;46.83;;;22.60;;
26656;SDS011;14279;50.010;8.260;2022-12-01T05:10:12;43.10;;;23.27;;
26656;SDS011;14279;50.010;8.260;2022-12-01T05:12:38;46.47;;;23.67;;
26656;SDS011;14279;50.010;8.260;2022-12-01T05:15:05;36.13;;;22.77;;
26656;SDS011;14279;50.010;8.260;2022-12-01T05:17:31;42.50;;;23.13;;
26656;SDS011;14279;50.010;8.260;2022-12-01T05:19:56;42.87;;;23.30;;
26656;SDS011;14279;50.010;8.260;2022-12-01T05:22:40;44.60;;;23.90;;
26656;SDS011;14279;50.010;8.260;2022-12-01T05:25:05;43.23;;;23.37;;
26656;SDS011;14279;50.010;8.260;2022-12-01T05:27:31;51.13;;;23.73;;
26656;SDS011;14279;50.010;8.260;2022-12-01T05:29:56;45.40;;;24.07;;
26656;SDS011;14279;50.010;8.260;2022-12-01T05:32:21;40.00;;;23.20;;
26656;SDS011;14279;50.010;8.260;2022-12-01T05:34:46;47.33;;;23.37;;
26656;SDS011;14279;50.010;8.260;2022-12-01T05:37:12;51.27;;;24.20;;
26656;SDS011;14279;50.010;8.260;2022-12-01T05:39:37;37.70;;;21.70;;
26656;SDS011;14279;50.010;8.260;2022-12-01T05:42:04;43.57;;;24.20;;
26656;SDS011;14279;50.010;8.260;2022-12-01T05:44:29;39.23;;;22.30;;
26656;SDS011;14279;50.010;8.260;2022-12-01T05:46:55;41.70;;;23.17;;
26656;SDS011;14279;50.010;8.260;2022-12-01T05:49:20;51.13;;;21.93;;
26656;SDS011;14279;50.010;8.260;2022-12-01T05:51:45;42.17;;;23.17;;
26656;SDS011;14279;50.010;8.260;2022-12-01T05:54:10;41.23;;;23.13;;
26656;SDS011;14279;50.010;8.260;2022-12-01T05:56:36;43.27;;;23.57;;
26656;SDS011;14279;50.010;8.260;2022-12-01T05:59:01;41.20;;;23.00;;
26656;SDS011;14279;50.010;8.260;2022-12-01T06:01:26;46.93;;;22.13;;
26656;SDS011;14279;50.010;8.260;2022-12-01T06:03:52;41.43;;;23.00;;
26656;SDS011;14279;50.010;8.260;2022-12-01T06:06:18;38.30;;;23.13;;
26656;SDS011;14279;50.010;8.260;2022-12-01T06:08:43;36.60;;;22.27;;
26656;SDS011;14279;50.010;8.260;2022-12-01T06:11:08;41.33;;;22.47;;
26656;SDS011;14279;50.010;8.260;2022-12-01T06:13:34;41.27;;;23.83;;
26656;SDS011;14279;50.010;8.260;2022-12-01T06:16:03;48.03;;;24.77;;
26656;SDS011;14279;50.010;8.260;2022-12-01T06:18:30;41.63;;;24.90;;
26656;SDS011;14279;50.010;8.260;2022-12-01T06:20:57;48.13;;;24.63;;
26656;SDS011;14279;50.010;8.260;2022-12-01T06:23:23;54.17;;;25.27;;
26656;SDS011;14279;50.010;8.260;2022-12-01T06:25:48;39.57;;;23.40;;
26656;SDS011;14279;50.010;8.260;2022-12-01T06:28:14;45.07;;;23.80;;
26656;SDS011;14279;50.010;8.260;2022-12-01T06:30:39;36.13;;;22.87;;
26656;SDS011;14279;50.010;8.260;2022-12-01T06:33:05;42.93;;;21.60;;
26656;SDS011;14279;50.010;8.260;2022-12-01T06:35:30;42.63;;;22.00;;
26656;SDS011;14279;50.010;8.260;2022-12-01T06:37:56;43.30;;;22.33;;
26656;SDS011;14279;50.010;8.260;2022-12-01T06:40:21;38.53;;;22.07;;
26656;SDS011;14279;50.010;8.260;2022-12-01T06:42:46;37.10;;;21.23;;
26656;SDS011;14279;50.010;8.260;2022-12-01T06:45:12;34.23;;;20.20;;
26656;SDS011;14279;50.010;8.260;2022-12-01T06:47:37;37.87;;;21.97;;
26656;SDS011;14279;50.010;8.260;2022-12-01T06:50:03;45.00;;;24.10;;
26656;SDS011;14279;50.010;8.260;2022-12-01T06:52:32;42.10;;;23.27;;
26656;SDS011;14279;50.010;8.260;2022-12-01T06:54:57;38.97;;;22.50;;
26656;SDS011;14279;50.010;8.260;2022-12-01T06:57:24;39.97;;;22.37;;
26656;SDS011;14279;50.010;8.260;2022-12-01T06:59:50;40.33;;;22.90;;
26656;SDS011;14279;50.010;8.260;2022-12-01T07:02:15;40.83;;;23.57;;
26656;SDS011;14279;50.010;8.260;2022-12-01T07:04:40;44.67;;;24.00;;
26656;SDS011;14279;50.010;8.260;2022-12-01T07:07:06;42.80;;;24.43;;
26656;SDS011;14279;50.010;8.260;2022-12-01T07:09:31;52.90;;;25.67;;
26656;SDS011;14279;50.010;8.260;2022-12-01T07:11:57;48.50;;;24.50;;
26656;SDS011;14279;50.010;8.260;2022-12-01T07:14:23;44.47;;;24.37;;
26656;SDS011;14279;50.010;8.260;2022-12-01T07:16:50;48.87;;;24.70;;
26656;SDS011;14279;50.010;8.260;2022-12-01T07:19:15;42.17;;;24.97;;
26656;SDS011;14279;50.010;8.260;2022-12-01T07:21:41;42.03;;;22.97;;
26656;SDS011;14279;50.010;8.260;2022-12-01T07:24:09;44.53;;;24.80;;
26656;SDS011;14279;50.010;8.260;2022-12-01T07:26:36;40.20;;;23.57;;
26656;SDS011;14279;50.010;8.260;2022-12-01T07:29:02;42.43;;;23.97;;
26656;SDS011;14279;50.010;8.260;2022-12-01T07:31:28;42.00;;;23.53;;
26656;SDS011;14279;50.010;8.260;2022-12-01T07:33:53;41.50;;;23.43;;
26656;SDS011;14279;50.010;8.260;2022-12-01T07:36:18;45.90;;;24.73;;
26656;SDS011;14279;50.010;8.260;2022-12-01T07:38:43;47.50;;;25.60;;
26656;SDS011;14279;50.010;8.260;2022-12-01T07:41:18;44.53;;;23.77;;
26656;SDS011;14279;50.010;8.260;2022-12-01T07:43:45;50.07;;;25.30;;
26656;SDS011;14279;50.010;8.260;2022-12-01T07:46:13;45.20;;;26.47;;
26656;SDS011;14279;50.010;8.260;2022-12-01T07:48:53;48.33;;;26.30;;
26656;SDS011;14279;50.010;8.260;2022-12-01T07:51:21;48.13;;;25.60;;
26656;SDS011;14279;50.010;8.260;2022-12-01T07:54:27;52.97;;;26.63;;
26656;SDS011;14279;50.010;8.260;2022-12-01T07:56:52;43.80;;;25.30;;
26656;SDS011;14279;50.010;8.260;2022-12-01T07:59:18;50.20;;;27.57;;
26656;SDS011;14279;50.010;8.260;2022-12-01T08:01:43;50.00;;;27.90;;
26656;SDS011;14279;50.010;8.260;2022-12-01T08:04:11;55.33;;;27.57;;
26656;SDS011;14279;50.010;8.260;2022-12-01T08:09:57;48.97;;;26.97;;
26656;SDS011;14279;50.010;8.260;2022-12-01T08:12:23;52.93;;;27.73;;
26656;SDS011;14279;50.010;8.260;2022-12-01T08:14:48;55.70;;;28.40;;
26656;SDS011;14279;50.010;8.260;2022-12-01T08:17:13;63.67;;;27.20;;
26656;SDS011;14279;50.010;8.260;2022-12-01T08:19:38;51.07;;;27.57;;
26656;SDS011;14279;50.010;8.260;2022-12-01T08:22:04;48.27;;;26.00;;
26656;SDS011;14279;50.010;8.260;2022-12-01T08:24:29;46.40;;;25.87;;
26656;SDS011;14279;50.010;8.260;2022-12-01T08:26:54;38.20;;;22.30;;
26656;SDS011;14279;50.010;8.260;2022-12-01T08:29:19;37.33;;;21.43;;
26656;SDS011;14279;50.010;8.260;2022-12-01T08:31:45;46.60;;;21.20;;
26656;SDS011;14279;50.010;8.260;2022-12-01T08:34:10;38.67;;;20.63;;
26656;SDS011;14279;50.010;8.260;2022-12-01T08:36:35;45.80;;;20.33;;
26656;SDS011;14279;50.010;8.260;2022-12-01T08:39:01;41.63;;;21.93;;
26656;SDS011;14279;50.010;8.260;2022-12-01T08:41:27;41.40;;;20.83;;
26656;SDS011;14279;50.010;8.260;2022-12-01T08:43:52;31.80;;;18.30;;
26656;SDS011;14279;50.010;8.260;2022-12-01T08:46:18;31.47;;;18.50;;
26656;SDS011;14279;50.010;8.260;2022-12-01T08:48:44;38.07;;;21.33;;
26656;SDS011;14279;50.010;8.260;2022-12-01T08:51:10;37.97;;;20.20;;
26656;SDS011;14279;50.010;8.260;2022-12-01T08:53:39;36.10;;;20.50;;
26656;SDS011;14279;50.010;8.260;2022-12-01T08:56:07;38.43;;;21.10;;
26656;SDS011;14279;50.010;8.260;2022-12-01T08:58:35;34.33;;;19.57;;
26656;SDS011;14279;50.010;8.260;2022-12-01T09:01:01;40.83;;;22.20;;
26656;SDS011;14279;50.010;8.260;2022-12-01T09:03:29;32.23;;;19.37;;
26656;SDS011;14279;50.010;8.260;2022-12-01T09:05:59;35.43;;;18.60;;
26656;SDS011;14279;50.010;8.260;2022-12-01T09:08:26;31.10;;;17.60;;
26656;SDS011;14279;50.010;8.260;2022-12-01T09:10:58;36.90;;;20.30;;
26656;SDS011;14279;50.010;8.260;2022-12-01T09:13:24;31.87;;;19.10;;
26656;SDS011;14279;50.010;8.260;2022-12-01T09:15:59;35.93;;;20.10;;
26656;SDS011;14279;50.010;8.260;2022-12-01T09:18:26;33.13;;;19.50;;
26656;SDS011;14279;50.010;8.260;2022-12-01T09:20:52;37.40;;;18.50;;
26656;SDS011;14279;50.010;8.260;2022-12-01T09:23:18;31.80;;;18.80;;
26656;SDS011;14279;50.010;8.260;2022-12-01T09:25:43;27.33;;;17.73;;
26656;SDS011;14279;50.010;8.260;2022-12-01T09:28:08;28.80;;;18.03;;
26656;SDS011;14279;50.010;8.260;2022-12-01T09:30:34;31.47;;;17.87;;
26656;SDS011;14279;50.010;8.260;2022-12-01T09:33:00;31.23;;;19.30;;
26656;SDS011;14279;50.010;8.260;2022-12-01T09:35:25;32.47;;;17.50;;
26656;SDS011;14279;50.010;8.260;2022-12-01T09:37:50;27.43;;;17.20;;
26656;SDS011;14279;50.010;8.260;2022-12-01T09:40:16;28.97;;;16.93;;
26656;SDS011;14279;50.010;8.260;2022-12-01T09:42:42;30.63;;;18.37;;
26656;SDS011;14279;50.010;8.260;2022-12-01T09:45:10;30.43;;;18.30;;
26656;SDS011;14279;50.010;8.260;2022-12-01T09:47:48;29.07;;;17.20;;
26656;SDS011;14279;50.010;8.260;2022-12-01T09:50:15;29.10;;;16.97;;
26656;SDS011;14279;50.010;8.260;2022-12-01T09:52:53;28.70;;;16.87;;
26656;SDS011;14279;50.010;8.260;2022-12-01T09:55:24;29.30;;;17.10;;
26656;SDS011;14279;50.010;8.260;2022-12-01T09:57:53;29.63;;;17.57;;
26656;SDS011;14279;50.010;8.260;2022-12-01T10:00:21;28.87;;;17.13;;
26656;SDS011;14279;50.010;8.260;2022-12-01T10:03:02;26.93;;;16.77;;
26656;SDS011;14279;50.010;8.260;2022-12-01T10:05:52;29.33;;;16.27;;
26656;SDS011;14279;50.010;8.260;2022-12-01T10:08:25;30.07;;;17.03;;
26656;SDS011;14279;50.010;8.260;2022-12-01T10:10:53;30.20;;;17.20;;
26656;SDS011;14279;50.010;8.260;2022-12-01T10:13:25;30.17;;;16.73;;
26656;SDS011;14279;50.010;8.260;2022-12-01T10:18:24;26.50;;;15.47;;
26656;SDS011;14279;50.010;8.260;2022-12-01T10:21:02;26.93;;;16.43;;
26656;SDS011;14279;50.010;8.260;2022-12-01T10:23:53;26.73;;;15.37;;
26656;SDS011;14279;50.010;8.260;2022-12-01T10:32:50;24.50;;;15.20;;
26656;SDS011;14279;50.010;8.260;2022-12-01T10:35:18;21.77;;;13.97;;
26656;SDS011;14279;50.010;8.260;2022-12-01T10:37:45;24.40;;;14.63;;
26656;SDS011;14279;50.010;8.260;2022-12-01T10:40:18;22.40;;;14.73;;
26656;SDS011;14279;50.010;8.260;2022-12-01T10:42:47;26.77;;;17.13;;
26656;SDS011;14279;50.010;8.260;2022-12-01T10:45:16;26.13;;;14.73;;
26656;SDS011;14279;50.010;8.260;2022-12-01T10:50:34;30.00;;;18.20;;
26656;SDS011;14279;50.010;8.260;2022-12-01T10:53:00;26.73;;;16.97;;
26656;SDS011;14279;50.010;8.260;2022-12-01T10:55:29;29.80;;;18.00;;
26656;SDS011;14279;50.010;8.260;2022-12-01T10:58:04;29.37;;;17.27;;
26656;SDS011;14279;50.010;8.260;2022-12-01T11:00:39;27.27;;;17.50;;
26656;SDS011;14279;50.010;8.260;2022-12-01T11:03:18;34.30;;;18.07;;
26656;SDS011;14279;50.010;8.260;2022-12-01T11:05:49;34.37;;;17.60;;
26656;SDS011;14279;50.010;8.260;2022-12-01T11:08:23;33.40;;;19.13;;
26656;SDS011;14279;50.010;8.260;2022-12-01T11:10:54;27.90;;;18.03;;
26656;SDS011;14279;50.010;8.260;2022-12-01T11:13:24;35.63;;;20.50;;
26656;SDS011;14279;50.010;8.260;2022-12-01T11:15:59;35.50;;;18.83;;
26656;SDS011;14279;50.010;8.260;2022-12-01T11:23:44;27.30;;;16.33;;
26656;SDS011;14279;50.010;8.260;2022-12-01T11:26:15;25.97;;;16.87;;
26656;SDS011;14279;50.010;8.260;2022-12-01T11:31:40;29.40;;;17.90;;
26656;SDS011;14279;50.010;8.260;2022-12-01T11:34:41;28.10;;;18.03;;
26656;SDS011;14279;50.010;8.260;2022-12-01T11:37:00;30.97;;;17.40;;
26656;SDS011;14279;50.010;8.260;2022-12-01T11:39:28;28.37;;;17.73;;
26656;SDS011;14279;50.010;8.260;2022-12-01T11:41:58;31.17;;;17.90;;
26656;SDS011;14279;50.010;8.260;2022-12-01T11:44:26;28.80;;;17.30;;
26656;SDS011;14279;50.010;8.260;2022-12-01T11:46:53;32.67;;;17.70;;
26656;SDS011;14279;50.010;8.260;2022-12-01T11:49:20;29.10;;;17.80;;
26656;SDS011;14279;50.010;8.260;2022-12-01T11:51:48;34.60;;;18.27;;
26656;SDS011;14279;50.010;8.260;2022-12-01T11:54:21;36.30;;;17.70;;
26656;SDS011;14279;50.010;8.260;2022-12-01T11:56:50;26.20;;;17.03;;
26656;SDS011;14279;50.010;8.260;2022-12-01T12:02:03;28.40;;;18.30;;
26656;SDS011;14279;50.010;8.260;2022-12-01T12:05:02;28.43;;;17.30;;
26656;SDS011;14279;50.010;8.260;2022-12-01T12:10:52;31.90;;;18.40;;
26656;SDS011;14279;50.010;8.260;2022-12-01T12:16:34;28.73;;;17.13;;
26656;SDS011;14279;50.010;8.260;2022-12-01T12:19:34;29.87;;;17.67;;
26656;SDS011;14279;50.010;8.260;2022-12-01T12:27:18;29.03;;;18.67;;
26656;SDS011;14279;50.010;8.260;2022-12-01T12:30:01;30.67;;;18.47;;
26656;SDS011;14279;50.010;8.260;2022-12-01T12:32:31;27.97;;;17.27;;
26656;SDS011;14279;50.010;8.260;2022-12-01T12:37:53;30.50;;;18.40;;
26656;SDS011;14279;50.010;8.260;2022-12-01T12:40:45;37.27;;;18.97;;
26656;SDS011;14279;50.010;8.260;2022-12-01T12:43:24;37.07;;;18.60;;
26656;SDS011;14279;50.010;8.260;2022-12-01T12:51:27;28.87;;;18.73;;
26656;SDS011;14279;50.010;8.260;2022-12-01T12:54:02;31.63;;;17.87;;
26656;SDS011;14279;50.010;8.260;2022-12-01T12:56:36;29.90;;;17.43;;
26656;SDS011;14279;50.010;8.260;2022-12-01T12:59:09;36.60;;;20.13;;
26656;SDS011;14279;50.010;8.260;2022-12-01T13:01:44;31.93;;;19.03;;
26656;SDS011;14279;50.010;8.260;2022-12-01T13:04:19;34.70;;;18.60;;
26656;SDS011;14279;50.010;8.260;2022-12-01T13:06:50;33.30;;;17.80;;
26656;SDS011;14279;50.010;8.260;2022-12-01T13:09:24;32.10;;;18.80;;
26656;SDS011;14279;50.010;8.260;2022-12-01T13:12:00;31.03;;;17.83;;
26656;SDS011;14279;50.010;8.260;2022-12-01T13:14:41;36.73;;;19.40;;
26656;SDS011;14279;50.010;8.260;2022-12-01T13:20:30;31.97;;;17.60;;
26656;SDS011;14279;50.010;8.260;2022-12-01T13:22:58;31.50;;;16.80;;
26656;SDS011;14279;50.010;8.260;2022-12-01T13:25:28;33.87;;;19.13;;
26656;SDS011;14279;50.010;8.260;2022-12-01T13:27:58;27.23;;;17.17;;
26656;SDS011;14279;50.010;8.260;2022-12-01T13:30:25;31.53;;;18.27;;
26656;SDS011;14279;50.010;8.260;2022-12-01T13:33:04;30.07;;;18.17;;
26656;SDS011;14279;50.010;8.260;2022-12-01T13:35:31;28.53;;;17.33;;
26656;SDS011;14279;50.010;8.260;2022-12-01T13:43:36;36.10;;;18.27;;
26656;SDS011;14279;50.010;8.260;2022-12-01T13:46:52;30.47;;;17.33;;
26656;SDS011;14279;50.010;8.260;2022-12-01T13:52:15;33.60;;;19.63;;
26656;SDS011;14279;50.010;8.260;2022-12-01T13:54:59;29.60;;;17.63;;
26656;SDS011;14279;50.010;8.260;2022-12-01T13:57:31;30.13;;;17.10;;
26656;SDS011;14279;50.010;8.260;2022-12-01T14:02:30;29.10;;;18.47;;
26656;SDS011;14279;50.010;8.260;2022-12-01T14:05:42;28.80;;;17.50;;
26656;SDS011;14279;50.010;8.260;2022-12-01T14:13:20;25.83;;;17.07;;
26656;SDS011;14279;50.010;8.260;2022-12-01T14:15:51;27.13;;;15.87;;
26656;SDS011;14279;50.010;8.260;2022-12-01T14:18:29;26.97;;;15.87;;
26656;SDS011;14279;50.010;8.260;2022-12-01T14:20:59;28.47;;;17.53;;
26656;SDS011;14279;50.010;8.260;2022-12-01T14:23:29;28.47;;;16.50;;
26656;SDS011;14279;50.010;8.260;2022-12-01T14:29:22;27.13;;;16.00;;
26656;SDS011;14279;50.010;8.260;2022-12-01T14:33:58;26.07;;;16.30;;
26656;SDS011;14279;50.010;8.260;2022-12-01T14:36:39;24.50;;;14.90;;
26656;SDS011;14279;50.010;8.260;2022-12-01T14:39:19;25.67;;;15.00;;
26656;SDS011;14279;50.010;8.260;2022-12-01T14:41:48;25.40;;;15.67;;
26656;SDS011;14279;50.010;8.260;2022-12-01T14:44:32;24.57;;;15.57;;
26656;SDS011;14279;50.010;8.260;2022-12-01T14:49:41;24.87;;;16.40;;
26656;SDS011;14279;50.010;8.260;2022-12-01T14:54:52;26.80;;;15.37;;
26656;SDS011;14279;50.010;8.260;2022-12-01T14:57:21;33.73;;;16.50;;
26656;SDS011;14279;50.010;8.260;2022-12-01T15:05:26;24.43;;;15.80;;
26656;SDS011;14279;50.010;8.260;2022-12-01T15:07:55;25.27;;;15.10;;
26656;SDS011;14279;50.010;8.260;2022-12-01T15:10:23;29.30;;;17.03;;
26656;SDS011;14279;50.010;8.260;2022-12-01T15:12:50;27.33;;;16.43;;
26656;SDS011;14279;50.010;8.260;2022-12-01T15:15:21;31.00;;;18.20;;
26656;SDS011;14279;50.010;8.260;2022-12-01T15:17:48;27.10;;;16.03;;
26656;SDS011;14279;50.010;8.260;2022-12-01T15:23:30;26.50;;;16.63;;
26656;SDS011;14279;50.010;8.260;2022-12-01T15:26:02;30.00;;;17.33;;
26656;SDS011;14279;50.010;8.260;2022-12-01T15:28:38;30.73;;;17.77;;
26656;SDS011;14279;50.010;8.260;2022-12-01T15:31:11;32.70;;;16.83;;
26656;SDS011;14279;50.010;8.260;2022-12-01T15:33:40;30.20;;;16.50;;
26656;SDS011;14279;50.010;8.260;2022-12-01T15:36:21;28.53;;;17.00;;
26656;SDS011;14279;50.010;8.260;2022-12-01T15:38:47;34.40;;;18.60;;
26656;SDS011;14279;50.010;8.260;2022-12-01T15:41:17;25.80;;;17.10;;
26656;SDS011;14279;50.010;8.260;2022-12-01T15:43:52;31.93;;;17.17;;
26656;SDS011;14279;50.010;8.260;2022-12-01T15:46:31;31.33;;;17.80;;
26656;SDS011;14279;50.010;8.260;2022-12-01T15:49:07;29.13;;;16.47;;
26656;SDS011;14279;50.010;8.260;2022-12-01T15:51:41;27.80;;;17.57;;
26656;SDS011;14279;50.010;8.260;2022-12-01T15:54:12;27.57;;;17.70;;
26656;SDS011;14279;50.010;8.260;2022-12-01T15:56:52;30.00;;;17.97;;
26656;SDS011;14279;50.010;8.260;2022-12-01T15:59:38;27.87;;;18.07;;
26656;SDS011;14279;50.010;8.260;2022-12-01T16:04:45;29.73;;;17.70;;
26656;SDS011;14279;50.010;8.260;2022-12-01T16:07:12;28.63;;;17.00;;
26656;SDS011;14279;50.010;8.260;2022-12-01T16:09:39;25.47;;;16.33;;
26656;SDS011;14279;50.010;8.260;2022-12-01T16:12:20;28.03;;;16.87;;
26656;SDS011;14279;50.010;8.260;2022-12-01T16:15:40;29.50;;;16.33;;
26656;SDS011;14279;50.010;8.260;2022-12-01T16:20:52;28.17;;;16.50;;
26656;SDS011;14279;50.010;8.260;2022-12-01T16:23:10;29.90;;;17.60;;
26656;SDS011;14279;50.010;8.260;2022-12-01T16:25:44;27.70;;;17.50;;
26656;SDS011;14279;50.010;8.260;2022-12-01T16:28:25;27.30;;;16.60;;
26656;SDS011;14279;50.010;8.260;2022-12-01T16:30:55;28.57;;;16.10;;
26656;SDS011;14279;50.010;8.260;2022-12-01T16:33:21;33.50;;;17.77;;
26656;SDS011;14279;50.010;8.260;2022-12-01T16:35:51;33.07;;;19.60;;
26656;SDS011;14279;50.010;8.260;2022-12-01T16:38:21;28.70;;;16.37;;
26656;SDS011;14279;50.010;8.260;2022-12-01T16:40:57;38.27;;;19.37;;
26656;SDS011;14279;50.010;8.260;2022-12-01T16:43:25;39.63;;;18.90;;